createdAt,value
2022-08-19T00:01:53.797Z,8.88
2022-08-19T00:04:27.649Z,8.90
2022-08-19T00:06:54.494Z,8.20
2022-08-19T00:09:23.037Z,8.48
2022-08-19T00:11:50.661Z,8.82
2022-08-19T00:14:18.323Z,7.82
2022-08-19T00:16:47.874Z,8.40
2022-08-19T00:19:15.404Z,8.63
2022-08-19T00:21:42.421Z,7.70
2022-08-19T00:24:10.647Z,8.32
2022-08-19T00:26:38.413Z,8.75
2022-08-19T00:29:06.740Z,8.75
2022-08-19T00:31:33.478Z,7.47
2022-08-19T00:34:00.198Z,8.75
2022-08-19T00:36:26.795Z,8.05
2022-08-19T00:38:53.432Z,7.68
2022-08-19T00:41:22.270Z,8.32
2022-08-19T00:44:04.140Z,8.20
2022-08-19T00:46:31.458Z,8.57
2022-08-19T00:48:58.759Z,8.65
2022-08-19T00:51:31.106Z,8.73
2022-08-19T00:53:59.586Z,9.25
2022-08-19T00:56:27.981Z,8.73
2022-08-19T00:58:57.564Z,8.15
2022-08-19T01:01:24.278Z,8.48
2022-08-19T01:03:57.564Z,7.82
2022-08-19T01:06:25.332Z,8.13
2022-08-19T01:08:52.106Z,8.52
2022-08-19T01:11:18.761Z,8.18
2022-08-19T01:13:49.838Z,7.32
2022-08-19T01:16:18.785Z,8.32
2022-08-19T01:18:45.927Z,8.00
2022-08-19T01:21:38.777Z,7.10
2022-08-19T01:24:05.762Z,8.00
2022-08-19T01:26:32.327Z,8.65
2022-08-19T01:29:02.212Z,8.10
2022-08-19T01:31:32.592Z,8.15
2022-08-19T01:34:01.348Z,7.85
2022-08-19T01:36:48.369Z,7.97
2022-08-19T01:39:20.241Z,7.50
2022-08-19T01:41:47.969Z,8.35
2022-08-19T01:44:18.746Z,7.72
2022-08-19T01:46:48.470Z,8.25
2022-08-19T01:49:16.013Z,7.85
2022-08-19T01:51:42.585Z,8.90
2022-08-19T01:54:10.899Z,8.23
2022-08-19T01:56:37.444Z,7.25
2022-08-19T01:59:09.415Z,8.25
2022-08-19T02:01:36.429Z,8.10
2022-08-19T02:04:03.344Z,7.75
2022-08-19T02:06:30.317Z,7.35
2022-08-19T02:08:57.634Z,8.48
2022-08-19T02:11:32.422Z,7.68
2022-08-19T02:14:00.782Z,7.88
2022-08-19T02:16:27.311Z,9.13
2022-08-19T02:18:53.823Z,8.18
2022-08-19T02:21:22.745Z,8.02
2022-08-19T02:23:50.396Z,8.10
2022-08-19T02:26:18.032Z,8.15
2022-08-19T02:28:44.594Z,7.88
2022-08-19T02:31:13.609Z,8.20
2022-08-19T02:36:08.256Z,7.60
2022-08-19T02:38:35.757Z,7.50
2022-08-19T02:41:05.402Z,7.32
2022-08-19T02:43:34.470Z,7.20
2022-08-19T02:46:01.713Z,7.43
2022-08-19T02:48:28.646Z,7.72
2022-08-19T02:50:57.779Z,7.70
2022-08-19T02:55:52.829Z,8.38
2022-08-19T02:58:19.652Z,8.07
2022-08-19T03:00:50.229Z,7.85
2022-08-19T03:03:18.073Z,8.00
2022-08-19T03:05:48.220Z,7.18
2022-08-19T03:08:23.667Z,8.02
2022-08-19T03:10:50.164Z,7.80
2022-08-19T03:13:18.866Z,7.50
2022-08-19T03:15:47.488Z,8.32
2022-08-19T03:18:15.626Z,8.05
2022-08-19T03:20:50.596Z,7.90
2022-08-19T03:23:17.831Z,8.50
2022-08-19T03:26:03.934Z,8.82
2022-08-19T03:28:35.834Z,7.57
2022-08-19T03:31:42.037Z,7.88
2022-08-19T03:33:54.313Z,7.53
2022-08-19T03:36:25.949Z,8.05
2022-08-19T03:39:00.533Z,8.43
2022-08-19T03:41:44.578Z,9.88
2022-08-19T03:44:23.160Z,7.85
2022-08-19T03:46:54.926Z,7.07
2022-08-19T03:49:27.083Z,7.40
2022-08-19T03:51:58.127Z,7.95
2022-08-19T03:54:26.259Z,7.57
2022-08-19T03:56:55.351Z,7.32
2022-08-19T04:01:55.357Z,7.75
2022-08-19T04:04:22.562Z,7.65
2022-08-19T04:06:49.361Z,7.13
2022-08-19T04:09:16.510Z,7.10
2022-08-19T04:11:47.864Z,9.13
2022-08-19T04:14:20.070Z,7.32
2022-08-19T04:16:48.426Z,7.93
2022-08-19T04:19:16.209Z,7.72
2022-08-19T04:21:45.010Z,7.45
2022-08-19T04:24:13.062Z,8.70
2022-08-19T04:26:40.153Z,8.95
2022-08-19T04:29:14.782Z,7.72
2022-08-19T04:31:42.903Z,8.18
2022-08-19T04:34:11.987Z,8.30
2022-08-19T04:39:10.878Z,7.68
2022-08-19T04:41:57.142Z,8.77
2022-08-19T04:44:24.080Z,8.27
2022-08-19T04:46:51.973Z,8.63
2022-08-19T04:49:22.791Z,8.13
2022-08-19T04:51:51.480Z,8.95
2022-08-19T04:54:38.010Z,8.73
2022-08-19T04:57:11.288Z,8.52
2022-08-19T04:59:40.146Z,9.20
2022-08-19T05:02:08.742Z,9.27
2022-08-19T05:04:36.530Z,9.20
2022-08-19T05:07:03.213Z,8.77
2022-08-19T05:09:52.533Z,9.13
2022-08-19T05:12:18.358Z,9.93
2022-08-19T05:14:46.002Z,9.40
2022-08-19T05:17:27.245Z,9.30
2022-08-19T05:20:14.045Z,9.38
2022-08-19T05:22:41.196Z,8.93
2022-08-19T05:25:13.870Z,9.57
2022-08-19T05:27:42.538Z,11.00
2022-08-19T05:30:10.796Z,9.95
2022-08-19T05:32:37.520Z,8.63
2022-08-19T05:35:05.642Z,10.32
2022-08-19T05:37:32.561Z,10.07
2022-08-19T05:39:59.151Z,10.38
2022-08-19T05:42:27.572Z,10.75
2022-08-19T05:44:54.253Z,10.93
2022-08-19T05:47:21.421Z,10.68
2022-08-19T05:49:48.787Z,10.63
2022-08-19T05:52:18.712Z,10.90
2022-08-19T05:54:51.122Z,10.38
2022-08-19T05:57:19.655Z,11.30
2022-08-19T05:59:57.859Z,11.38
2022-08-19T06:02:26.036Z,11.73
2022-08-19T06:04:52.636Z,10.05
2022-08-19T06:07:20.498Z,11.15
2022-08-19T06:10:00.091Z,10.50
2022-08-19T06:12:32.480Z,11.38
2022-08-19T06:15:01.275Z,11.90
2022-08-19T06:17:30.090Z,11.82
2022-08-19T06:19:57.343Z,11.25
2022-08-19T06:22:24.013Z,11.65
2022-08-19T06:24:53.648Z,11.82
2022-08-19T06:27:21.082Z,11.02
2022-08-19T06:29:47.898Z,11.30
2022-08-19T06:32:17.350Z,11.32
2022-08-19T06:34:43.972Z,11.43
2022-08-19T06:37:12.128Z,11.43
2022-08-19T06:39:41.176Z,10.27
2022-08-19T06:42:11.132Z,11.93
2022-08-19T06:44:42.672Z,11.98
2022-08-19T06:47:14.825Z,10.82
2022-08-19T06:49:50.378Z,11.15
2022-08-19T06:52:17.141Z,10.25
2022-08-19T06:54:55.353Z,10.32
2022-08-19T06:57:25.020Z,10.70
2022-08-19T06:59:51.860Z,9.80
2022-08-19T07:02:19.595Z,10.32
2022-08-19T07:04:46.270Z,11.02
2022-08-19T07:07:20.132Z,11.48
2022-08-19T07:09:58.029Z,10.32
2022-08-19T07:12:30.506Z,10.68
2022-08-19T07:14:58.798Z,9.57
2022-08-19T07:17:26.213Z,10.27
2022-08-19T07:19:54.551Z,9.13
2022-08-19T07:22:24.414Z,10.40
2022-08-19T07:24:52.339Z,9.70
2022-08-19T07:27:24.249Z,8.93
2022-08-19T07:29:55.828Z,10.52
2022-08-19T07:32:26.899Z,9.48
2022-08-19T07:34:53.840Z,9.25
2022-08-19T07:37:20.447Z,10.20
2022-08-19T07:39:47.009Z,9.60
2022-08-19T07:42:14.710Z,9.38
2022-08-19T07:44:42.144Z,8.57
2022-08-19T07:47:47.053Z,9.88
2022-08-19T07:49:55.684Z,7.95
2022-08-19T07:52:22.390Z,8.40
2022-08-19T08:06:09.389Z,8.52
2022-08-19T08:08:54.385Z,7.60
2022-08-19T08:11:22.089Z,7.70
2022-08-19T08:14:01.042Z,7.32
2022-08-19T08:16:32.296Z,7.13
2022-08-19T08:18:59.455Z,7.45
2022-08-19T08:21:26.191Z,6.68
2022-08-19T08:23:56.541Z,7.13
2022-08-19T08:26:24.007Z,7.10
2022-08-19T08:28:50.958Z,7.28
2022-08-19T08:31:20.098Z,7.35
2022-08-19T08:33:47.900Z,7.32
2022-08-19T08:36:14.830Z,7.30
2022-08-19T08:38:43.290Z,6.32
2022-08-19T08:41:20.691Z,8.15
2022-08-19T08:43:52.120Z,7.13
2022-08-19T08:46:39.241Z,8.18
2022-08-19T08:49:23.664Z,7.03
2022-08-19T08:52:01.915Z,7.90
2022-08-19T08:54:40.333Z,6.53
2022-08-19T08:57:16.246Z,7.15
2022-08-19T08:59:47.689Z,7.57
2022-08-19T09:02:14.241Z,7.22
2022-08-19T09:04:40.805Z,7.05
2022-08-19T09:07:34.838Z,7.28
2022-08-19T09:10:29.713Z,7.60
2022-08-19T09:13:15.459Z,7.10
2022-08-19T09:15:49.023Z,7.57
2022-08-19T09:18:19.468Z,7.43
2022-08-19T09:20:50.133Z,7.32
2022-08-19T09:23:16.934Z,7.55
2022-08-19T09:25:43.526Z,7.47
2022-08-19T09:28:22.168Z,7.65
2022-08-19T09:30:49.529Z,7.45
2022-08-19T09:33:16.608Z,7.82
2022-08-19T09:35:49.560Z,7.20
2022-08-19T09:38:20.144Z,8.40
2022-08-19T09:40:46.722Z,7.32
2022-08-19T09:43:13.637Z,7.30
2022-08-19T09:45:41.598Z,8.25
2022-08-19T09:48:09.555Z,6.73
2022-08-19T09:50:51.652Z,8.50
2022-08-19T09:53:19.967Z,8.15
2022-08-19T09:55:46.582Z,8.57
2022-08-19T09:58:13.137Z,7.80
2022-08-19T10:00:40.194Z,8.77
2022-08-19T10:03:07.125Z,7.53
2022-08-19T10:05:55.149Z,7.43
2022-08-19T10:08:28.940Z,8.63
2022-08-19T10:10:56.386Z,8.07
2022-08-19T10:13:28.520Z,7.10
2022-08-19T10:15:57.919Z,7.40
2022-08-19T10:18:26.320Z,7.28
2022-08-19T10:20:54.576Z,7.70
2022-08-19T10:23:22.572Z,7.72
2022-08-19T10:25:50.731Z,7.65
2022-08-19T10:28:19.445Z,8.25
2022-08-19T10:33:12.964Z,8.23
2022-08-19T10:35:42.502Z,8.20
2022-08-19T10:38:09.582Z,7.72
2022-08-19T10:40:36.790Z,8.02
2022-08-19T10:43:03.310Z,8.38
2022-08-19T10:45:29.957Z,8.80
2022-08-19T10:47:56.682Z,7.65
2022-08-19T10:50:42.075Z,8.85
2022-08-19T10:53:09.741Z,8.88
2022-08-19T10:55:55.108Z,7.77
2022-08-19T10:58:26.124Z,8.50
2022-08-19T11:00:55.445Z,9.10
2022-08-19T11:03:23.159Z,7.68
2022-08-19T11:06:04.044Z,8.32
2022-08-19T11:08:32.140Z,9.00
2022-08-19T11:11:02.192Z,8.43
2022-08-19T11:13:30.096Z,8.45
2022-08-19T11:16:07.870Z,8.52
2022-08-19T11:18:40.306Z,7.90
2022-08-19T11:21:20.054Z,8.52
2022-08-19T11:23:52.691Z,8.32
2022-08-19T11:26:21.782Z,8.55
2022-08-19T11:28:49.232Z,8.63
2022-08-19T11:31:19.735Z,7.93
2022-08-19T11:33:47.865Z,9.07
2022-08-19T11:36:15.358Z,8.15
2022-08-19T11:38:42.610Z,8.33
2022-08-19T11:41:09.553Z,7.30
2022-08-19T11:43:37.730Z,7.20
2022-08-19T11:46:09.025Z,8.20
2022-08-19T11:48:36.014Z,8.40
2022-08-19T11:51:10.346Z,8.38
2022-08-19T11:53:38.009Z,7.72
2022-08-19T11:56:06.977Z,8.07
2022-08-19T11:58:33.631Z,7.57
2022-08-19T12:01:00.252Z,8.30
2022-08-19T12:03:27.423Z,7.68
2022-08-19T12:05:54.164Z,8.02
2022-08-19T12:08:20.916Z,8.25
2022-08-19T12:10:47.517Z,7.43
2022-08-19T12:13:19.312Z,7.20
2022-08-19T12:15:48.031Z,8.85
2022-08-19T12:18:14.967Z,8.48
2022-08-19T12:20:43.416Z,7.32
2022-08-19T12:23:13.225Z,7.28
2022-08-19T12:25:51.163Z,8.30
2022-08-19T12:28:19.543Z,7.38
2022-08-19T12:30:46.524Z,6.78
2022-08-19T12:33:14.544Z,7.60
2022-08-19T12:35:45.665Z,6.53
2022-08-19T12:38:12.769Z,6.88
2022-08-19T12:40:41.170Z,7.63
2022-08-19T12:43:09.296Z,7.28
2022-08-19T12:45:36.001Z,7.05
2022-08-19T12:48:31.372Z,7.20
2022-08-19T12:50:51.990Z,6.35
2022-08-19T12:53:18.718Z,7.20
2022-08-19T12:55:45.268Z,7.05
2022-08-19T12:58:13.474Z,6.95
2022-08-19T13:00:40.941Z,7.60
2022-08-19T13:03:07.721Z,7.55
2022-08-19T13:05:35.214Z,6.85
2022-08-19T13:08:01.910Z,7.10
2022-08-19T13:10:35.897Z,6.85
2022-08-19T13:13:08.324Z,7.13
2022-08-19T13:15:37.976Z,7.68
2022-08-19T13:18:04.819Z,8.05
2022-08-19T13:20:31.356Z,8.52
2022-08-19T13:22:58.337Z,8.38
2022-08-19T13:25:26.419Z,7.88
2022-08-19T13:27:53.921Z,7.50
2022-08-19T13:30:39.702Z,7.53
2022-08-19T13:33:12.701Z,8.75
2022-08-19T13:35:41.526Z,7.82
2022-08-19T13:38:11.793Z,7.90
2022-08-19T13:40:39.290Z,8.43
2022-08-19T13:43:17.873Z,8.65
2022-08-19T13:45:53.697Z,9.35
2022-08-19T13:48:20.375Z,7.43
2022-08-19T13:50:48.380Z,8.55
2022-08-19T13:53:16.080Z,8.18
2022-08-19T13:55:44.423Z,7.90
2022-08-19T13:58:11.950Z,8.35
2022-08-19T14:00:42.867Z,8.15
2022-08-19T14:03:09.933Z,7.85
2022-08-19T14:05:37.257Z,8.63
2022-08-19T14:08:04.154Z,9.30
2022-08-19T14:10:32.499Z,8.90
2022-08-19T14:13:01.161Z,8.77
2022-08-19T14:15:28.970Z,8.07
2022-08-19T14:17:55.815Z,9.10
2022-08-19T14:20:25.860Z,8.27
2022-08-19T14:22:54.186Z,9.68
2022-08-19T14:25:24.586Z,9.60
2022-08-19T14:27:51.303Z,8.85
2022-08-19T14:30:22.102Z,12.48
2022-08-19T14:32:48.763Z,12.43
2022-08-19T14:35:16.690Z,9.10
2022-08-19T14:37:46.146Z,8.38
2022-08-19T14:40:15.312Z,8.40
2022-08-19T14:42:42.906Z,9.50
2022-08-19T14:45:11.346Z,9.43
2022-08-19T14:50:18.318Z,8.75
2022-08-19T14:52:46.152Z,8.45
2022-08-19T14:55:14.448Z,8.90
2022-08-19T14:57:45.293Z,8.10
2022-08-19T15:00:16.179Z,9.20
2022-08-19T15:02:45.259Z,9.85
2022-08-19T15:05:12.335Z,10.43
2022-08-19T15:07:39.442Z,9.20
2022-08-19T15:10:08.009Z,8.25
2022-08-19T15:12:43.367Z,8.93
2022-08-19T15:15:13.805Z,9.25
2022-08-19T15:17:54.304Z,9.05
2022-08-19T15:20:23.254Z,9.55
2022-08-19T15:22:50.317Z,9.95
2022-08-19T15:25:19.641Z,9.40
2022-08-19T15:27:46.470Z,9.27
2022-08-19T15:30:19.952Z,8.15
2022-08-19T15:32:49.032Z,9.48
2022-08-19T15:35:16.394Z,9.40
2022-08-19T15:37:43.198Z,8.80
2022-08-19T15:40:10.160Z,8.63
2022-08-19T15:42:38.650Z,8.40
2022-08-19T15:47:35.106Z,8.67
2022-08-19T15:50:28.555Z,8.15
2022-08-19T15:52:58.871Z,8.10
2022-08-19T15:55:32.802Z,8.73
2022-08-19T15:58:28.345Z,8.48
2022-08-19T16:01:16.807Z,8.38
2022-08-19T16:04:05.909Z,8.80
2022-08-19T16:06:43.712Z,8.32
2022-08-19T16:09:10.292Z,9.00
2022-08-19T16:11:39.943Z,9.35
2022-08-19T16:14:09.513Z,8.93
2022-08-19T16:16:37.417Z,9.00
2022-08-19T16:19:10.538Z,11.13
2022-08-19T16:21:39.633Z,8.43
2022-08-19T16:24:10.561Z,8.35
2022-08-19T16:26:37.206Z,8.23
2022-08-19T16:29:08.667Z,8.57
2022-08-19T16:31:37.319Z,7.68
2022-08-19T16:34:04.508Z,8.05
2022-08-19T16:36:32.436Z,8.68
2022-08-19T16:38:58.975Z,9.27
2022-08-19T16:41:25.509Z,8.73
2022-08-19T16:43:52.604Z,8.90
2022-08-19T16:46:20.499Z,8.80
2022-08-19T16:48:50.120Z,9.48
2022-08-19T16:51:17.188Z,9.68
2022-08-19T16:53:45.091Z,9.43
2022-08-19T16:56:11.906Z,8.68
2022-08-19T16:58:38.713Z,8.52
2022-08-19T17:01:07.827Z,8.70
2022-08-19T17:03:36.385Z,8.55
2022-08-19T17:06:18.931Z,8.40
2022-08-19T17:08:49.897Z,8.57
2022-08-19T17:11:19.087Z,8.35
2022-08-19T17:13:48.076Z,8.73
2022-08-19T17:16:16.279Z,8.50
2022-08-19T17:18:42.812Z,7.85
2022-08-19T17:21:09.389Z,7.22
2022-08-19T17:23:42.497Z,7.68
2022-08-19T17:26:14.044Z,8.13
2022-08-19T17:28:50.254Z,8.00
2022-08-19T17:31:19.291Z,8.82
2022-08-19T17:33:48.394Z,7.60
2022-08-19T17:36:15.866Z,9.48
2022-08-19T17:38:42.709Z,8.45
2022-08-19T17:41:09.255Z,8.88
2022-08-19T17:43:42.824Z,8.00
2022-08-19T17:46:11.124Z,8.88
2022-08-19T17:48:38.909Z,8.77
2022-08-19T17:51:35.738Z,8.52
2022-08-19T17:54:04.342Z,9.02
2022-08-19T17:56:31.018Z,8.82
2022-08-19T17:59:00.760Z,9.35
2022-08-19T18:01:31.430Z,8.48
2022-08-19T18:04:17.422Z,8.02
2022-08-19T18:06:46.574Z,8.43
2022-08-19T18:09:23.688Z,8.73
2022-08-19T18:11:52.441Z,8.90
2022-08-19T18:14:20.178Z,9.60
2022-08-19T18:16:46.822Z,8.95
2022-08-19T18:19:13.477Z,10.32
2022-08-19T18:21:40.864Z,10.32
2022-08-19T18:24:08.003Z,9.90
2022-08-19T18:26:34.934Z,10.30
2022-08-19T18:29:02.165Z,10.38
2022-08-19T18:31:30.053Z,10.02
2022-08-19T18:33:57.020Z,9.40
2022-08-19T18:36:50.143Z,9.13
2022-08-19T18:39:29.439Z,8.65
2022-08-19T18:42:15.094Z,8.98
2022-08-19T18:45:00.467Z,9.23
2022-08-19T18:47:45.885Z,9.73
2022-08-19T18:50:13.834Z,8.95
2022-08-19T18:52:41.144Z,9.48
2022-08-19T18:55:08.357Z,9.30
2022-08-19T18:57:35.431Z,9.27
2022-08-19T19:00:04.373Z,9.32
2022-08-19T19:02:38.709Z,8.38
2022-08-19T19:05:07.655Z,9.35
2022-08-19T19:07:34.827Z,8.82
2022-08-19T19:10:01.382Z,11.52
2022-08-19T19:12:30.548Z,9.10
2022-08-19T19:14:58.688Z,9.43
2022-08-19T19:17:28.292Z,8.93
2022-08-19T19:19:54.915Z,8.57
2022-08-19T19:22:23.678Z,9.15
2022-08-19T19:24:51.837Z,9.52
2022-08-19T19:27:20.622Z,9.57
2022-08-19T19:32:29.459Z,9.48
2022-08-19T19:34:56.621Z,9.23
2022-08-19T19:37:23.290Z,8.82
2022-08-19T19:39:49.895Z,10.23
2022-08-19T19:42:21.257Z,8.88
2022-08-19T19:44:54.853Z,10.48
2022-08-19T19:47:24.507Z,9.70
2022-08-19T19:52:40.155Z,10.23
2022-08-19T19:55:07.414Z,9.98
2022-08-19T19:57:34.151Z,10.07
2022-08-19T20:00:00.781Z,10.10
2022-08-19T20:02:27.541Z,10.43
2022-08-19T20:04:56.252Z,9.27
2022-08-19T20:07:42.779Z,9.20
2022-08-19T20:10:09.352Z,9.25
2022-08-19T20:12:35.891Z,9.15
2022-08-19T20:15:03.387Z,10.07
2022-08-19T20:17:30.102Z,9.57
2022-08-19T20:19:57.501Z,9.40
2022-08-19T20:22:25.938Z,9.75
2022-08-19T20:24:53.837Z,10.07
2022-08-19T20:27:21.601Z,9.70
2022-08-19T20:29:52.410Z,10.52
2022-08-19T20:32:18.992Z,10.57
2022-08-19T20:34:49.136Z,11.20
2022-08-19T20:37:15.913Z,9.32
2022-08-19T20:39:42.721Z,10.00
2022-08-19T20:42:09.340Z,10.48
2022-08-19T20:44:36.078Z,9.93
2022-08-19T20:47:04.004Z,10.20
2022-08-19T20:49:30.870Z,11.10
2022-08-19T20:51:58.520Z,10.98
2022-08-19T20:54:25.996Z,10.57
2022-08-19T20:56:53.184Z,10.82
2022-08-19T20:59:20.493Z,10.50
2022-08-19T21:01:48.320Z,10.70
2022-08-19T21:04:14.974Z,11.20
2022-08-19T21:06:45.244Z,9.93
2022-08-19T21:09:13.599Z,10.55
2022-08-19T21:11:40.564Z,10.07
2022-08-19T21:14:07.925Z,10.05
2022-08-19T21:16:34.560Z,10.82
2022-08-19T21:19:01.670Z,11.23
2022-08-19T21:21:28.460Z,11.35
2022-08-19T21:23:55.063Z,11.18
2022-08-19T21:26:21.705Z,11.80
2022-08-19T21:28:48.247Z,11.20
2022-08-19T21:31:17.818Z,11.50
2022-08-19T21:33:45.089Z,11.38
2022-08-19T21:36:11.698Z,10.60
2022-08-19T21:38:38.449Z,11.38
2022-08-19T21:41:06.590Z,10.65
2022-08-19T21:43:34.848Z,9.45
2022-08-19T21:46:01.881Z,11.63
2022-08-19T21:48:28.514Z,10.55
2022-08-19T21:50:55.054Z,10.80
2022-08-19T21:53:22.755Z,10.60
2022-08-19T21:55:53.186Z,10.90
2022-08-19T21:58:29.955Z,9.88
2022-08-19T22:00:58.830Z,11.10
2022-08-19T22:03:26.077Z,10.50
2022-08-19T22:05:52.847Z,10.88
2022-08-19T22:08:19.475Z,10.73
2022-08-19T22:10:46.555Z,10.57
2022-08-19T22:13:13.333Z,10.40
2022-08-19T22:15:42.303Z,9.95
2022-08-19T22:18:08.957Z,10.85
2022-08-19T22:20:35.483Z,11.82
2022-08-19T22:23:06.691Z,10.65
2022-08-19T22:25:40.485Z,10.00
2022-08-19T22:28:10.926Z,10.63
2022-08-19T22:30:41.797Z,10.50
2022-08-19T22:33:12.534Z,10.65
2022-08-19T22:35:41.050Z,9.98
2022-08-19T22:38:09.128Z,9.88
2022-08-19T22:40:39.510Z,9.83
2022-08-19T22:43:12.144Z,11.30
2022-08-19T22:45:39.060Z,10.65
2022-08-19T22:48:09.038Z,10.90
2022-08-19T22:50:37.724Z,10.80
2022-08-19T22:53:07.440Z,11.20
2022-08-19T22:55:35.795Z,11.02
2022-08-19T22:58:02.728Z,10.63
2022-08-19T23:00:30.619Z,10.82
2022-08-19T23:02:58.325Z,11.95
2022-08-19T23:05:28.227Z,11.25
2022-08-19T23:07:57.327Z,11.82
2022-08-19T23:10:27.621Z,10.75
2022-08-19T23:12:56.929Z,11.40
2022-08-19T23:20:20.962Z,11.15
2022-08-19T23:22:49.730Z,10.93
2022-08-19T23:25:20.100Z,11.13
2022-08-19T23:28:05.170Z,11.23
2022-08-19T23:30:36.969Z,12.85
2022-08-19T23:33:16.150Z,11.55
2022-08-19T23:35:42.717Z,11.50
2022-08-19T23:38:09.877Z,11.60
2022-08-19T23:40:38.532Z,11.18
2022-08-19T23:43:08.228Z,11.35
2022-08-19T23:45:38.790Z,10.82
2022-08-19T23:48:06.942Z,11.18
2022-08-19T23:50:35.135Z,11.30
2022-08-19T23:53:02.415Z,11.50
2022-08-19T23:55:32.690Z,10.20
2022-08-19T23:57:59.798Z,10.93
